Аэропорт: Толмачёво. Новосибирск

ICAO: UNNT

METAR:
2019-09-21 16:00:00
UNNT 211600Z 23001MPS 5000 BR FU NSC 06/03 Q1022 R07/090070 R16/090070 NOSIG RMK QFE756/1009
METAR:
2019-09-21 14:00:00
TAF UNNT 211400Z 2115/2215 12003MPS 3000 FU NSC TEMPO 2115/2116 1500 FU BR TEMPO 2116/2202 0300 FG SCT002 BECMG 2202/2204 9999 NSW SCT040 BECMG 2204/2206 14008G15MPS